Time;durP1;ratioP1;P1;durP2;ratioP2;P2;SDS_P1;SDS_P2;PMS_P1;PMS_P2;Temp;Humidity;BMP_temperature;BMP_pressure;BME280_temperature;BME280_humidity;BME280_pressure;Samples;Min_cycle;Max_cycle;Signal;HPM_P1;HPM_P2
2024/03/20 00:02:01;;;;;;;467.20;443.60;;;8.80;99.90;;;;;;5072319;28;20455;-64
2024/03/20 00:04:28;;;;;;;484.57;459.50;;;8.80;99.90;;;;;;5080549;28;20466;-64
2024/03/20 00:06:55;;;;;;;503.90;477.17;;;8.70;99.90;;;;;;5080787;28;20856;-64
2024/03/20 00:09:22;;;;;;;517.50;489.37;;;8.70;99.90;;;;;;5072307;28;20458;-64
2024/03/20 00:11:49;;;;;;;487.97;460.67;;;8.70;99.90;;;;;;5078747;28;20480;-63
2024/03/20 00:14:15;;;;;;;492.77;465.10;;;8.70;99.90;;;;;;5075533;28;20649;-64
2024/03/20 00:16:44;;;;;;;512.80;483.80;;;8.70;99.90;;;;;;5077682;28;20839;-64
2024/03/20 00:19:10;;;;;;;506.90;477.63;;;8.80;99.90;;;;;;5082036;28;20458;-64
2024/03/20 00:21:37;;;;;;;508.40;479.47;;;8.80;99.90;;;;;;5078908;28;20457;-64
2024/03/20 00:24:05;;;;;;;501.20;471.80;;;8.80;99.90;;;;;;5072374;28;20476;-64
2024/03/20 00:26:31;;;;;;;516.43;486.40;;;8.80;99.90;;;;;;5075408;28;20459;-64
2024/03/20 00:28:58;;;;;;;505.70;476.80;;;8.80;99.90;;;;;;5076195;28;20450;-64
2024/03/20 00:31:25;;;;;;;521.67;492.87;;;8.70;99.90;;;;;;5080085;28;20485;-64
2024/03/20 00:33:53;;;;;;;521.00;491.37;;;8.70;99.90;;;;;;5080236;28;20470;-64
2024/03/20 00:36:21;;;;;;;516.77;486.50;;;8.60;99.90;;;;;;5080248;28;20452;-64
2024/03/20 00:38:48;;;;;;;534.80;502.87;;;8.60;99.90;;;;;;5080223;28;20599;-64
2024/03/20 00:41:14;;;;;;;504.07;474.47;;;8.60;99.90;;;;;;5071804;28;20484;-64
2024/03/20 00:43:41;;;;;;;532.43;499.80;;;8.50;99.90;;;;;;5072205;28;20509;-64
2024/03/20 00:46:08;;;;;;;512.13;481.53;;;8.50;99.90;;;;;;5072167;28;20458;-64
2024/03/20 00:48:35;;;;;;;518.90;487.70;;;8.40;99.90;;;;;;5080099;28;20457;-64
2024/03/20 00:51:03;;;;;;;518.13;485.50;;;8.40;99.90;;;;;;5071753;28;20478;-64
2024/03/20 00:53:30;;;;;;;514.73;482.73;;;8.40;99.90;;;;;;5075485;28;20988;-64
2024/03/20 00:55:57;;;;;;;514.03;480.03;;;8.40;99.90;;;;;;5076226;28;20457;-64
2024/03/20 00:58:24;;;;;;;530.93;497.00;;;8.40;99.90;;;;;;5071133;28;20966;-64
2024/03/20 01:00:50;;;;;;;523.60;491.20;;;8.40;99.90;;;;;;5071683;28;20446;-64
2024/03/20 01:03:17;;;;;;;529.87;494.27;;;8.40;99.90;;;;;;5071560;28;20476;-64
2024/03/20 01:05:44;;;;;;;524.87;490.47;;;8.40;99.90;;;;;;5071781;28;20450;-64
2024/03/20 01:08:14;;;;;;;530.87;496.23;;;8.40;99.90;;;;;;5071187;28;20465;-64
2024/03/20 01:10:41;;;;;;;530.50;497.70;;;8.40;99.90;;;;;;5080937;28;20478;-64
2024/03/20 01:13:08;;;;;;;514.53;482.53;;;8.40;99.90;;;;;;5082646;28;20470;-64
2024/03/20 01:15:35;;;;;;;522.63;489.13;;;8.30;99.90;;;;;;5081659;28;20454;-64
2024/03/20 01:18:02;;;;;;;525.17;492.07;;;8.30;99.90;;;;;;5080454;28;20454;-64
2024/03/20 01:20:29;;;;;;;517.10;483.70;;;8.30;99.90;;;;;;5071310;28;20465;-64
2024/03/20 01:22:56;;;;;;;520.97;488.87;;;8.30;99.90;;;;;;5079598;28;20500;-63
2024/03/20 01:25:24;;;;;;;522.97;489.97;;;8.20;99.90;;;;;;5079925;28;20840;-64
2024/03/20 01:27:51;;;;;;;528.13;494.57;;;8.20;99.90;;;;;;5071302;28;20450;-64
2024/03/20 01:30:18;;;;;;;526.85;494.10;;;8.20;99.90;;;;;;5082557;28;20518;-64
2024/03/20 01:32:45;;;;;;;532.77;498.67;;;8.20;99.90;;;;;;5075202;28;20488;-65
2024/03/20 01:35:12;;;;;;;528.60;495.50;;;8.30;99.90;;;;;;5083468;28;20454;-64
2024/03/20 01:37:39;;;;;;;526.73;495.50;;;8.20;99.90;;;;;;5074999;28;20461;-63
2024/03/20 01:40:07;;;;;;;520.97;490.77;;;8.20;99.90;;;;;;5074997;28;20454;-64
2024/03/20 01:42:35;;;;;;;520.27;490.63;;;8.10;99.90;;;;;;5083536;28;20450;-64
2024/03/20 01:45:12;;;;;;;520.27;489.30;;;8.00;99.90;;;;;;5074835;28;20827;-64
2024/03/20 01:47:39;;;;;;;524.83;492.67;;;8.00;99.90;;;;;;5074481;28;20445;-64
2024/03/20 01:50:08;;;;;;;534.87;502.47;;;8.00;99.90;;;;;;5075603;28;20460;-64
2024/03/20 01:52:35;;;;;;;518.40;485.40;;;8.10;99.90;;;;;;5081779;28;20992;-64
2024/03/20 01:55:02;;;;;;;533.47;498.07;;;8.00;99.90;;;;;;5074749;28;20450;-64
2024/03/20 01:57:29;;;;;;;527.07;493.50;;;8.00;99.90;;;;;;5082890;28;20458;-64
2024/03/20 01:59:57;;;;;;;534.43;499.80;;;8.00;99.90;;;;;;5083224;28;20468;-64
2024/03/20 02:02:24;;;;;;;525.33;489.13;;;7.90;99.90;;;;;;5085836;28;20945;-64
2024/03/20 02:04:51;;;;;;;530.70;495.47;;;8.00;99.90;;;;;;5079966;28;20481;-64
2024/03/20 02:07:18;;;;;;;541.50;504.90;;;8.00;99.90;;;;;;5082610;28;20457;-64
2024/03/20 02:09:44;;;;;;;534.50;498.77;;;8.00;99.90;;;;;;5074600;28;20450;-64
2024/03/20 02:12:11;;;;;;;528.70;493.30;;;8.00;99.90;;;;;;5074355;28;20569;-64
2024/03/20 02:14:39;;;;;;;536.93;501.00;;;7.90;99.90;;;;;;5082892;28;20671;-64
2024/03/20 02:17:07;;;;;;;543.47;505.97;;;7.90;99.90;;;;;;5074527;28;20458;-64
2024/03/20 02:19:34;;;;;;;546.13;508.80;;;7.90;99.90;;;;;;5086285;28;20494;-64
2024/03/20 02:22:03;;;;;;;536.13;499.63;;;7.90;99.90;;;;;;5077944;28;20468;-64
2024/03/20 02:24:30;;;;;;;549.67;512.07;;;7.90;99.90;;;;;;5077888;28;20476;-64
2024/03/20 02:26:57;;;;;;;545.17;507.47;;;7.90;99.90;;;;;;5077693;28;20450;-64
2024/03/20 02:29:23;;;;;;;551.33;511.90;;;7.80;99.90;;;;;;5076671;28;20452;-64
2024/03/20 02:31:50;;;;;;;543.07;503.40;;;7.80;99.90;;;;;;5079063;28;20485;-64
2024/03/20 02:34:17;;;;;;;550.13;509.87;;;7.80;99.90;;;;;;5076046;28;20509;-64
2024/03/20 02:36:46;;;;;;;545.40;506.70;;;7.80;99.90;;;;;;5085600;28;20445;-64
2024/03/20 02:39:14;;;;;;;539.40;500.63;;;7.70;99.90;;;;;;5075836;28;20454;-64
2024/03/20 02:41:41;;;;;;;533.87;495.80;;;7.70;99.90;;;;;;5073574;28;20903;-64
2024/03/20 02:44:07;;;;;;;538.77;499.47;;;7.70;99.90;;;;;;5073430;28;20478;-64
2024/03/20 02:46:34;;;;;;;549.50;510.00;;;7.70;99.90;;;;;;5082159;28;20529;-64
2024/03/20 02:49:01;;;;;;;559.00;519.80;;;7.60;99.90;;;;;;5074145;28;20492;-64
2024/03/20 02:51:28;;;;;;;556.03;516.17;;;7.50;99.90;;;;;;5073566;28;20493;-64
2024/03/20 02:53:55;;;;;;;558.03;517.43;;;7.60;99.90;;;;;;5073515;28;20473;-64
2024/03/20 02:56:23;;;;;;;554.43;514.67;;;7.60;99.90;;;;;;5081928;28;20593;-64
2024/03/20 02:58:49;;;;;;;557.53;517.57;;;7.50;99.90;;;;;;5073364;28;20477;-64
2024/03/20 03:01:17;;;;;;;553.63;512.20;;;7.50;99.90;;;;;;5081939;28;20450;-64
2024/03/20 03:03:45;;;;;;;557.17;515.87;;;7.50;99.90;;;;;;5073594;28;20474;-64
2024/03/20 03:06:14;;;;;;;562.57;520.53;;;7.60;99.90;;;;;;5082037;28;20454;-64
2024/03/20 03:08:41;;;;;;;564.17;519.60;;;7.60;99.90;;;;;;5073181;28;20454;-64
2024/03/20 03:11:08;;;;;;;577.70;533.00;;;7.70;99.90;;;;;;5081374;28;20898;-64
2024/03/20 03:13:36;;;;;;;562.60;518.47;;;7.70;99.90;;;;;;5073105;28;20477;-64
2024/03/20 03:16:04;;;;;;;565.53;522.17;;;7.60;99.90;;;;;;5081584;28;20449;-64
2024/03/20 03:18:31;;;;;;;570.70;527.30;;;7.60;99.90;;;;;;5081149;28;20488;-64
2024/03/20 03:20:58;;;;;;;571.40;528.40;;;7.60;99.90;;;;;;5073071;28;20541;-64
2024/03/20 03:23:25;;;;;;;566.53;522.57;;;7.60;99.90;;;;;;5076183;28;20476;-64
2024/03/20 03:25:52;;;;;;;573.53;528.80;;;7.50;99.90;;;;;;5077844;28;20972;-65
2024/03/20 03:28:18;;;;;;;573.60;529.57;;;7.50;99.90;;;;;;5072814;28;20461;-64
2024/03/20 03:30:47;;;;;;;566.07;522.17;;;7.50;99.90;;;;;;5081305;28;20848;-65
2024/03/20 03:33:14;;;;;;;576.77;530.80;;;7.50;99.90;;;;;;5072537;28;20490;-64
2024/03/20 03:35:40;;;;;;;582.97;538.77;;;7.60;99.90;;;;;;5078337;28;20476;-64
2024/03/20 03:38:07;;;;;;;605.87;561.03;;;7.50;99.90;;;;;;5074960;28;20456;-64
2024/03/20 03:40:34;;;;;;;596.57;551.47;;;7.50;99.90;;;;;;5072885;28;20544;-64
2024/03/20 03:43:01;;;;;;;605.93;560.60;;;7.50;99.90;;;;;;5072778;28;20474;-64
2024/03/20 03:45:28;;;;;;;612.80;568.30;;;7.50;99.90;;;;;;5081358;28;20446;-64
2024/03/20 03:47:57;;;;;;;588.27;543.20;;;7.50;99.90;;;;;;5079639;28;20453;-63
2024/03/20 03:50:24;;;;;;;592.50;547.70;;;7.50;99.90;;;;;;5072746;28;20453;-64
2024/03/20 03:52:51;;;;;;;589.70;545.30;;;7.50;99.90;;;;;;5071279;28;20492;-64
2024/03/20 03:55:18;;;;;;;599.43;553.97;;;7.50;99.90;;;;;;5072559;28;20461;-64
2024/03/20 03:57:45;;;;;;;605.17;558.80;;;7.50;99.90;;;;;;5072208;28;20461;-64
2024/03/20 04:00:13;;;;;;;613.37;567.27;;;7.50;99.90;;;;;;5072366;28;20454;-64
2024/03/20 04:02:40;;;;;;;600.20;553.63;;;7.50;99.90;;;;;;5072329;28;20475;-64
2024/03/20 04:05:08;;;;;;;615.33;569.27;;;7.50;99.90;;;;;;5072854;28;20450;-64
2024/03/20 04:07:35;;;;;;;625.43;579.63;;;7.40;99.90;;;;;;5079336;28;20541;-64
2024/03/20 04:10:02;;;;;;;642.43;594.97;;;7.40;99.90;;;;;;5080742;28;20482;-62
2024/03/20 04:12:28;;;;;;;639.37;589.73;;;7.40;99.90;;;;;;5071930;28;20489;-64
2024/03/20 04:14:55;;;;;;;660.17;609.57;;;7.50;99.90;;;;;;5072182;28;20465;-64
2024/03/20 04:17:22;;;;;;;661.60;611.60;;;7.50;99.90;;;;;;5071766;28;20462;-64
2024/03/20 04:19:49;;;;;;;660.87;611.37;;;7.50;99.90;;;;;;5072057;28;20837;-64
2024/03/20 04:22:17;;;;;;;671.73;620.90;;;7.50;99.90;;;;;;5072130;28;20450;-64
2024/03/20 04:24:44;;;;;;;705.37;652.90;;;7.50;99.90;;;;;;5078105;28;20464;-64
2024/03/20 04:27:10;;;;;;;699.33;648.03;;;7.60;99.90;;;;;;5074041;28;20454;-64
2024/03/20 04:29:37;;;;;;;703.67;651.70;;;7.60;99.90;;;;;;5080104;28;20458;-64
2024/03/20 04:32:05;;;;;;;692.93;641.20;;;7.60;99.90;;;;;;5071869;28;20484;-64
2024/03/20 04:34:31;;;;;;;700.03;648.70;;;7.50;99.90;;;;;;5071718;28;20470;-64
2024/03/20 04:36:58;;;;;;;708.47;657.13;;;7.50;99.90;;;;;;5071933;28;20461;-64
2024/03/20 04:39:29;;;;;;;714.37;662.07;;;7.50;99.90;;;;;;5072431;28;20450;-64
2024/03/20 04:41:56;;;;;;;727.50;674.43;;;7.50;99.90;;;;;;5072605;28;20450;-64
2024/03/20 04:44:24;;;;;;;742.27;688.70;;;7.50;99.90;;;;;;5071944;28;20470;-64
2024/03/20 04:46:51;;;;;;;738.80;684.53;;;7.60;99.90;;;;;;5072164;28;20461;-64
2024/03/20 04:49:17;;;;;;;732.30;679.07;;;7.70;99.90;;;;;;5072248;28;20454;-65
2024/03/20 04:51:44;;;;;;;717.63;665.20;;;7.70;99.90;;;;;;5080357;28;20843;-64
2024/03/20 04:54:12;;;;;;;720.83;668.77;;;7.70;99.90;;;;;;5080076;28;20469;-64
2024/03/20 04:56:40;;;;;;;729.67;677.50;;;7.60;99.90;;;;;;5071619;28;20545;-64
2024/03/20 04:59:07;;;;;;;710.53;658.23;;;7.60;99.90;;;;;;5080036;28;20460;-64
2024/03/20 05:01:35;;;;;;;683.70;632.93;;;7.70;99.90;;;;;;5071808;28;20458;-64
2024/03/20 05:04:02;;;;;;;695.87;644.43;;;7.60;99.90;;;;;;5074258;28;20481;-64
2024/03/20 05:06:29;;;;;;;715.33;664.17;;;7.60;99.90;;;;;;5075314;28;20454;-62
2024/03/20 05:08:56;;;;;;;714.53;663.30;;;7.60;99.90;;;;;;5076256;28;20497;-64
2024/03/20 05:11:22;;;;;;;727.00;675.47;;;7.50;99.90;;;;;;5075758;28;20454;-64
2024/03/20 05:13:50;;;;;;;748.83;694.53;;;7.50;99.90;;;;;;5083733;28;20548;-63
2024/03/20 05:16:17;;;;;;;759.23;703.43;;;7.50;99.90;;;;;;5075459;28;20993;-64
2024/03/20 05:18:44;;;;;;;758.13;701.83;;;7.50;99.90;;;;;;5075660;28;20960;-64
2024/03/20 05:21:11;;;;;;;736.93;681.13;;;7.60;99.90;;;;;;5075700;28;20454;-65
2024/03/20 05:23:37;;;;;;;723.80;670.10;;;7.60;99.90;;;;;;5075290;28;20557;-64
2024/03/20 05:26:04;;;;;;;697.43;646.10;;;7.60;99.90;;;;;;5083873;28;20505;-64
2024/03/20 05:28:29;;;;;;;704.73;651.97;;;7.50;99.90;;;;;;5074906;28;20454;-64
2024/03/20 05:30:58;;;;;;;765.00;709.20;;;7.40;99.90;;;;;;5083661;28;20466;-64
2024/03/20 05:33:23;;;;;;;763.67;708.27;;;7.40;99.90;;;;;;5078291;28;20610;-64
2024/03/20 05:35:50;;;;;;;779.63;722.63;;;7.40;99.90;;;;;;5080315;28;20460;-64
2024/03/20 05:38:16;;;;;;;778.97;722.67;;;7.40;99.90;;;;;;5074552;28;20458;-64
2024/03/20 05:40:43;;;;;;;770.13;714.17;;;7.40;99.90;;;;;;5083536;28;20462;-64
2024/03/20 05:43:09;;;;;;;789.97;732.50;;;7.40;99.90;;;;;;5082944;28;20969;-64
2024/03/20 05:45:36;;;;;;;781.03;725.20;;;7.40;99.90;;;;;;5075079;28;20453;-64
2024/03/20 05:48:05;;;;;;;752.83;698.37;;;7.40;99.90;;;;;;5074577;28;20227;-64
2024/03/20 05:50:32;;;;;;;748.90;694.10;;;7.40;99.90;;;;;;5074910;28;20458;-64
2024/03/20 05:52:58;;;;;;;755.53;699.23;;;7.40;99.90;;;;;;5074743;28;20493;-64
2024/03/20 05:55:25;;;;;;;753.77;695.97;;;7.40;99.90;;;;;;5074647;28;20453;-64
2024/03/20 05:57:51;;;;;;;774.80;717.13;;;7.50;99.90;;;;;;5074674;28;20547;-64
2024/03/20 06:00:19;;;;;;;757.63;701.43;;;7.50;99.90;;;;;;5076902;28;20507;-64
2024/03/20 06:02:46;;;;;;;778.63;720.87;;;7.50;99.90;;;;;;5080043;28;20470;-64
2024/03/20 06:05:16;;;;;;;767.70;710.10;;;7.50;99.90;;;;;;5074538;28;20624;-64
2024/03/20 06:07:42;;;;;;;777.57;719.40;;;7.50;99.90;;;;;;5074038;28;20477;-64
2024/03/20 06:10:09;;;;;;;786.90;728.73;;;7.60;99.90;;;;;;5075382;28;20458;-64
2024/03/20 06:12:36;;;;;;;771.97;714.00;;;7.70;99.90;;;;;;5081258;28;20220;-64
2024/03/20 06:15:03;;;;;;;787.43;729.93;;;7.70;99.90;;;;;;5073549;28;20450;-64
2024/03/20 06:17:29;;;;;;;783.43;726.40;;;7.80;99.90;;;;;;5078108;28;20476;-64
2024/03/20 06:19:56;;;;;;;781.60;724.33;;;7.80;99.90;;;;;;5078461;28;20456;-65
2024/03/20 06:22:24;;;;;;;772.17;715.80;;;7.90;99.90;;;;;;5074108;28;20473;-64
2024/03/20 06:24:50;;;;;;;776.53;720.20;;;8.00;99.90;;;;;;5082355;28;20460;-65
2024/03/20 06:27:17;;;;;;;778.40;722.57;;;8.10;99.90;;;;;;5073943;28;21141;-64
2024/03/20 06:29:43;;;;;;;778.20;723.13;;;8.20;99.90;;;;;;5073912;28;20511;-64
2024/03/20 06:32:10;;;;;;;776.60;721.87;;;8.30;99.90;;;;;;5074208;28;20478;-64
2024/03/20 06:34:37;;;;;;;766.80;713.60;;;8.40;99.90;;;;;;5073884;28;20504;-63
2024/03/20 06:37:04;;;;;;;750.63;698.50;;;8.50;99.90;;;;;;5073568;28;20458;-65
2024/03/20 06:39:31;;;;;;;739.47;688.07;;;8.60;99.90;;;;;;5073632;28;20964;-65
2024/03/20 06:41:58;;;;;;;714.13;665.23;;;8.70;99.90;;;;;;5073964;28;20553;-64
2024/03/20 06:44:23;;;;;;;679.10;632.10;;;8.80;99.90;;;;;;5073843;28;20474;-64
2024/03/20 06:46:50;;;;;;;659.97;615.53;;;8.90;99.90;;;;;;5082316;28;20460;-64
2024/03/20 06:49:18;;;;;;;613.50;572.50;;;9.00;99.90;;;;;;5082751;28;20200;-65
2024/03/20 06:51:49;;;;;;;591.53;553.63;;;9.10;99.90;;;;;;5082303;28;20463;-65
2024/03/20 06:54:16;;;;;;;574.60;537.37;;;9.20;99.90;;;;;;5075447;28;20474;-65
2024/03/20 06:56:48;;;;;;;552.43;518.03;;;9.30;99.90;;;;;;5079499;28;20450;-65
2024/03/20 06:59:16;;;;;;;533.30;499.93;;;9.40;99.90;;;;;;5081327;28;20446;-64
2024/03/20 07:01:41;;;;;;;511.60;481.77;;;9.60;99.90;;;;;;5073930;28;20474;-64
2024/03/20 07:04:09;;;;;;;491.73;462.63;;;9.70;99.90;;;;;;5073081;28;20498;-64
2024/03/20 07:06:37;;;;;;;452.47;427.93;;;9.90;99.90;;;;;;5081109;28;20457;-65
2024/03/20 07:09:04;;;;;;;427.13;405.33;;;9.90;99.90;;;;;;5081275;28;20960;-65
2024/03/20 07:11:30;;;;;;;425.70;404.23;;;10.10;99.90;;;;;;5073036;28;20539;-64
2024/03/20 07:13:58;;;;;;;396.60;377.40;;;10.20;99.90;;;;;;5081423;28;20648;-64
2024/03/20 07:16:26;;;;;;;391.90;373.20;;;10.40;99.90;;;;;;5073099;28;20228;-65
2024/03/20 07:18:55;;;;;;;369.20;352.73;;;10.50;99.90;;;;;;5072588;28;20520;-63
2024/03/20 07:21:22;;;;;;;354.60;339.10;;;10.60;99.90;;;;;;5081881;28;20932;-65
2024/03/20 07:23:49;;;;;;;317.57;304.23;;;10.80;99.90;;;;;;5073924;28;20470;-65
2024/03/20 07:26:15;;;;;;;287.80;275.77;;;10.90;99.90;;;;;;5073166;28;20454;-65
2024/03/20 07:28:42;;;;;;;253.93;243.90;;;11.00;99.90;;;;;;5072768;28;20527;-65
2024/03/20 07:31:11;;;;;;;236.33;227.17;;;11.10;99.90;;;;;;5072830;28;20215;-64
2024/03/20 07:33:38;;;;;;;220.93;212.33;;;11.10;99.90;;;;;;5072342;28;20513;-64
2024/03/20 07:36:05;;;;;;;230.10;221.17;;;11.20;99.90;;;;;;5072915;28;20457;-66
2024/03/20 07:38:31;;;;;;;222.87;214.33;;;11.30;99.90;;;;;;5072051;28;20464;-65
2024/03/20 07:40:57;;;;;;;221.37;213.03;;;11.30;99.90;;;;;;5080785;28;20946;-64
2024/03/20 07:43:28;;;;;;;169.07;162.53;;;11.40;99.90;;;;;;5080785;28;20476;-64
2024/03/20 07:45:59;;;;;;;125.23;120.07;;;11.50;99.90;;;;;;5071851;28;20261;-63
2024/03/20 07:48:28;;;;;;;120.83;115.73;;;11.50;99.90;;;;;;5071596;28;20454;-65
2024/03/20 07:50:54;;;;;;;110.67;105.83;;;11.60;99.90;;;;;;5071911;28;20481;-64
2024/03/20 07:53:21;;;;;;;94.90;90.77;;;11.70;99.90;;;;;;5072052;28;20981;-64
2024/03/20 07:55:50;;;;;;;86.37;81.87;;;11.80;99.90;;;;;;5072354;28;20545;-65
2024/03/20 07:58:17;;;;;;;73.07;69.37;;;11.90;99.90;;;;;;5080152;28;20884;-64
2024/03/20 08:00:43;;;;;;;53.63;50.50;;;12.10;99.90;;;;;;5072149;28;20490;-65
2024/03/20 08:03:10;;;;;;;54.33;51.03;;;12.30;99.90;;;;;;5073242;28;20509;-65
2024/03/20 08:05:37;;;;;;;45.90;42.97;;;12.40;99.90;;;;;;5079228;28;20458;-65
2024/03/20 08:08:08;;;;;;;36.17;33.67;;;12.40;99.90;;;;;;5072226;28;20949;-65
2024/03/20 08:10:33;;;;;;;32.60;29.33;;;12.50;99.90;;;;;;5072206;28;20450;-65
2024/03/20 08:13:00;;;;;;;27.10;24.33;;;12.70;99.90;;;;;;5080193;28;21055;-65
2024/03/20 08:15:26;;;;;;;21.43;17.20;;;12.80;99.90;;;;;;5076166;28;20207;-64
2024/03/20 08:17:53;;;;;;;17.23;13.30;;;13.00;99.90;;;;;;5078690;28;20457;-65
2024/03/20 08:20:20;;;;;;;17.67;12.90;;;13.10;99.90;;;;;;5071968;28;20578;-65
2024/03/20 08:22:50;;;;;;;18.47;12.50;;;13.20;99.90;;;;;;5071313;28;20470;-65
2024/03/20 08:25:21;;;;;;;15.60;12.67;;;13.40;99.10;;;;;;5071657;28;20454;-65
2024/03/20 08:27:48;;;;;;;24.07;12.63;;;13.40;99.00;;;;;;5079109;28;20500;-65
2024/03/20 08:30:14;;;;;;;20.73;12.03;;;13.60;99.10;;;;;;5081280;28;20593;-64
2024/03/20 08:32:46;;;;;;;15.10;10.93;;;13.70;99.00;;;;;;5077619;28;20510;-64
2024/03/20 08:35:12;;;;;;;16.73;11.20;;;13.80;95.80;;;;;;5071923;28;20900;-65
2024/03/20 08:37:39;;;;;;;15.83;10.60;;;14.20;94.30;;;;;;5070691;28;20454;-66
2024/03/20 08:40:09;;;;;;;19.17;11.20;;;14.40;92.80;;;;;;5080803;28;20446;-66
2024/03/20 08:42:36;;;;;;;16.42;11.93;;;14.70;92.90;;;;;;5083265;28;20819;-65
2024/03/20 08:45:03;;;;;;;16.60;10.75;;;14.90;93.00;;;;;;5082034;28;20820;-64
2024/03/20 08:47:30;;;;;;;17.77;10.47;;;15.20;88.80;;;;;;5080001;28;20233;-65
2024/03/20 08:49:56;;;;;;;18.83;9.40;;;15.30;81.80;;;;;;5079942;28;20453;-65
2024/03/20 08:52:23;;;;;;;14.37;9.03;;;15.50;82.00;;;;;;5079893;28;20545;-65
2024/03/20 08:54:49;;;;;;;16.17;9.30;;;15.60;74.40;;;;;;5071527;28;20541;-64
2024/03/20 08:57:18;;;;;;;17.47;9.80;;;15.90;79.10;;;;;;5071629;28;20458;-65
2024/03/20 08:59:45;;;;;;;14.97;9.60;;;16.30;68.20;;;;;;5071904;28;20451;-65
2024/03/20 09:02:12;;;;;;;15.83;10.20;;;16.70;67.10;;;;;;5081240;28;20457;-65
2024/03/20 09:04:39;;;;;;;14.70;9.07;;;17.00;67.30;;;;;;5083359;28;20469;-65
2024/03/20 09:07:09;;;;;;;19.87;9.13;;;17.10;62.40;;;;;;5082485;28;20449;-64
2024/03/20 09:09:37;;;;;;;15.83;9.37;;;17.60;59.60;;;;;;5071387;28;20469;-65
2024/03/20 09:12:07;;;;;;;17.60;11.33;;;17.90;51.40;;;;;;5071634;28;20466;-65
2024/03/20 09:14:34;;;;;;;14.50;10.60;;;18.10;51.40;;;;;;5071075;28;20516;-65
2024/03/20 09:17:01;;;;;;;18.33;10.80;;;18.40;51.70;;;;;;5071062;28;20466;-65
2024/03/20 09:19:27;;;;;;;16.90;9.57;;;18.70;43.10;;;;;;5075094;28;20453;-65
2024/03/20 09:21:56;;;;;;;21.70;10.20;;;19.00;43.40;;;;;;5083048;28;20924;-65
2024/03/20 09:24:22;;;;;;;16.80;9.33;;;19.30;34.70;;;;;;5072026;28;20235;-64
2024/03/20 09:26:51;;;;;;;19.10;10.10;;;19.60;35.20;;;;;;5080416;28;20485;-65
2024/03/20 09:29:18;;;;;;;14.20;10.60;;;19.80;35.10;;;;;;5071348;28;20537;-65
2024/03/20 09:31:47;;;;;;;16.60;9.53;;;20.20;27.40;;;;;;5079775;28;20461;-65
2024/03/20 09:34:13;;;;;;;14.50;9.47;;;20.00;27.00;;;;;;5071015;28;20482;-65
2024/03/20 09:36:40;;;;;;;14.80;8.77;;;20.40;27.30;;;;;;5079515;28;20498;-65
2024/03/20 09:39:10;;;;;;;12.43;8.67;;;20.60;20.20;;;;;;5071365;28;20450;-65
2024/03/20 09:41:37;;;;;;;12.17;7.90;;;20.40;20.00;;;;;;5079610;28;20954;-65
2024/03/20 09:44:05;;;;;;;16.33;8.30;;;20.10;19.80;;;;;;5079617;28;20493;-64
2024/03/20 09:46:34;;;;;;;13.17;8.63;;;20.50;20.10;;;;;;5079600;28;20458;-64
2024/03/20 09:49:04;;;;;;;12.93;9.03;;;20.50;20.10;;;;;;5079343;28;20549;-65
2024/03/20 09:51:31;;;;;;;17.37;8.60;;;20.70;20.20;;;;;;5074512;28;20545;-65
2024/03/20 09:53:58;;;;;;;17.93;8.77;;;20.90;20.30;;;;;;5074785;28;20508;-65
2024/03/20 09:56:26;;;;;;;13.83;7.77;;;21.40;13.50;;;;;;5083519;28;20465;-64
2024/03/20 09:58:53;;;;;;;15.67;9.20;;;21.50;13.30;;;;;;5081690;28;20464;-65
2024/03/20 10:01:22;;;;;;;14.00;7.67;;;22.10;13.70;;;;;;5084290;28;20496;-65
2024/03/20 10:03:53;;;;;;;13.80;7.83;;;22.10;8.00;;;;;;5081148;28;20473;-65
2024/03/20 10:06:22;;;;;;;15.33;7.70;;;22.40;6.30;;;;;;5083856;28;20457;-65
2024/03/20 10:08:53;;;;;;;18.13;8.80;;;22.40;6.30;;;;;;5073846;28;20455;-65
2024/03/20 10:11:20;;;;;;;16.83;7.83;;;22.20;6.20;;;;;;5074520;28;20548;-65
2024/03/20 10:13:46;;;;;;;11.70;7.67;;;22.50;6.40;;;;;;5074479;28;20488;-65
2024/03/20 10:16:17;;;;;;;14.30;9.17;;;22.40;6.30;;;;;;5082813;28;20544;-63
2024/03/20 10:18:44;;;;;;;18.20;7.90;;;22.90;1.00;;;;;;5073713;28;20902;-64
2024/03/20 10:21:13;;;;;;;11.90;7.70;;;23.50;1.00;;;;;;5074401;28;20466;-64
2024/03/20 10:23:45;;;;;;;14.27;7.50;;;23.80;1.00;;;;;;5082655;28;20859;-64
2024/03/20 10:26:13;;;;;;;13.20;6.60;;;23.90;1.00;;;;;;5082142;28;20458;-63
2024/03/20 10:28:40;;;;;;;12.87;4.87;;;24.10;1.00;;;;;;5073704;28;20840;-62
2024/03/20 10:31:12;;;;;;;9.90;5.43;;;24.70;1.00;;;;;;5074095;28;20466;-62
2024/03/20 10:33:39;;;;;;;9.50;6.27;;;24.70;1.00;;;;;;5082314;28;20929;-63
2024/03/20 10:36:08;;;;;;;12.80;5.30;;;24.90;1.00;;;;;;5082218;28;20460;-62
2024/03/20 10:38:43;;;;;;;8.47;4.43;;;25.20;1.00;;;;;;5081929;28;20450;-62
2024/03/20 10:41:12;;;;;;;12.63;5.77;;;25.60;1.00;;;;;;5073570;28;20520;-62
2024/03/20 10:43:41;;;;;;;11.07;5.70;;;25.70;1.00;;;;;;5079004;28;20469;-62
2024/03/20 10:46:16;;;;;;;11.33;7.00;;;25.40;1.00;;;;;;5077239;28;20459;-61
2024/03/20 10:48:42;;;;;;;14.73;7.80;;;24.90;1.00;;;;;;5085612;28;20492;-62
2024/03/20 10:51:13;;;;;;;12.43;4.90;;;24.80;1.00;;;;;;5084564;28;20477;-63
2024/03/20 10:53:39;;;;;;;11.70;5.30;;;25.00;1.00;;;;;;5073046;28;20231;-62
2024/03/20 10:56:07;;;;;;;8.50;4.10;;;24.90;1.00;;;;;;5073471;28;20458;-62
2024/03/20 10:58:33;;;;;;;11.70;4.30;;;25.00;1.00;;;;;;5073084;28;20258;-62
2024/03/20 11:01:01;;;;;;;11.00;5.63;;;25.20;1.00;;;;;;5081554;28;20910;-63
2024/03/20 11:03:47;;;;;;;12.90;4.90;;;25.10;1.00;;;;;;5073195;28;20993;-63
2024/03/20 11:06:44;;;;;;;7.83;4.27;;;25.00;1.00;;;;;;5081606;28;20532;-63
2024/03/20 11:09:21;;;;;;;7.83;3.00;;;24.90;1.00;;;;;;5081764;28;20457;-63
2024/03/20 11:11:52;;;;;;;9.77;3.73;;;24.90;1.00;;;;;;5081752;28;20536;-63
2024/03/20 11:14:35;;;;;;;9.47;3.57;;;24.80;1.00;;;;;;5083448;28;20482;-62
2024/03/20 11:17:06;;;;;;;14.10;3.40;;;25.00;1.00;;;;;;5075312;28;20450;-62
2024/03/20 11:19:32;;;;;;;10.63;3.93;;;25.30;1.00;;;;;;5073298;28;20454;-62
2024/03/20 11:22:03;;;;;;;8.00;3.60;;;25.40;1.00;;;;;;5081083;28;20552;-63
2024/03/20 11:24:30;;;;;;;7.63;3.40;;;25.70;1.00;;;;;;5085277;28;20215;-62
2024/03/20 11:27:02;;;;;;;7.67;3.90;;;25.10;1.00;;;;;;5092660;28;20540;-62
2024/03/20 11:29:28;;;;;;;10.40;3.60;;;25.20;1.00;;;;;;5093083;28;21003;-62
2024/03/20 11:31:56;;;;;;;7.60;3.50;;;26.00;1.00;;;;;;5086283;28;20546;-63
2024/03/20 11:34:23;;;;;;;9.73;3.88;;;26.60;1.00;;;;;;5080058;28;20465;-62
2024/03/20 11:36:52;;;;;;;8.60;4.10;;;27.20;1.00;;;;;;5078270;28;20524;-64
2024/03/20 11:39:23;;;;;;;9.43;3.70;;;26.90;1.00;;;;;;5082264;28;20671;-63
2024/03/20 11:41:50;;;;;;;9.90;4.57;;;26.80;1.00;;;;;;5081559;28;20904;-64
2024/03/20 11:44:17;;;;;;;9.50;3.60;;;26.50;1.00;;;;;;5083321;28;20462;-64
2024/03/20 11:46:44;;;;;;;13.43;4.60;;;26.90;1.00;;;;;;5084531;28;20446;-64
2024/03/20 11:49:10;;;;;;;16.13;4.90;;;27.00;1.00;;;;;;5083503;28;20528;-64
2024/03/20 11:51:38;;;;;;;11.37;4.40;;;26.30;1.00;;;;;;5080979;28;20545;-64
2024/03/20 11:54:04;;;;;;;9.90;4.10;;;25.60;1.00;;;;;;5080202;28;20220;-64
2024/03/20 11:56:32;;;;;;;8.27;4.13;;;25.80;1.00;;;;;;5084066;28;20531;-65
2024/03/20 11:59:01;;;;;;;10.33;4.17;;;26.00;1.00;;;;;;5084311;28;20528;-64
2024/03/20 12:01:29;;;;;;;9.30;4.47;;;26.20;1.00;;;;;;5072718;28;20847;-65
2024/03/20 12:04:01;;;;;;;8.87;4.30;;;25.80;1.00;;;;;;5080063;28;20472;-65
2024/03/20 12:06:28;;;;;;;9.77;4.93;;;25.60;1.00;;;;;;5081973;28;20454;-65
2024/03/20 12:08:55;;;;;;;10.20;4.30;;;24.30;1.00;;;;;;5081604;28;20717;-65
2024/03/20 12:11:40;;;;;;;9.67;4.00;;;24.50;1.00;;;;;;5084967;28;20454;-65
2024/03/20 12:14:08;;;;;;;15.03;3.50;;;25.00;1.00;;;;;;5084295;28;20900;-66
2024/03/20 12:16:36;;;;;;;9.70;4.53;;;25.30;1.00;;;;;;5081881;28;20450;-65
2024/03/20 12:19:07;;;;;;;11.50;4.20;;;25.60;1.00;;;;;;5081553;28;20450;-65
2024/03/20 12:21:35;;;;;;;12.53;4.33;;;26.00;1.00;;;;;;5086820;28;20461;-65
2024/03/20 12:24:01;;;;;;;8.23;3.80;;;26.00;1.00;;;;;;5088334;28;20472;-66
2024/03/20 12:26:33;;;;;;;13.47;4.83;;;26.40;1.00;;;;;;5082779;28;20522;-66
2024/03/20 12:28:59;;;;;;;9.37;4.90;;;26.30;1.00;;;;;;5080687;28;20199;-65